sensor_id;sensor_type;location;lat;lon;timestamp;P1;durP1;ratioP1;P2;durP2;ratioP2
11394;SDS011;5753;54.402;10.220;2023-05-23T00:02:12;6.78;;;4.43;;
11394;SDS011;5753;54.402;10.220;2023-05-23T00:04:39;7.30;;;4.35;;
11394;SDS011;5753;54.402;10.220;2023-05-23T00:07:07;5.75;;;3.83;;
11394;SDS011;5753;54.402;10.220;2023-05-23T00:09:33;6.18;;;4.53;;
11394;SDS011;5753;54.402;10.220;2023-05-23T00:11:59;17.70;;;4.65;;
11394;SDS011;5753;54.402;10.220;2023-05-23T00:14:26;5.75;;;3.72;;
11394;SDS011;5753;54.402;10.220;2023-05-23T00:16:55;7.35;;;5.93;;
11394;SDS011;5753;54.402;10.220;2023-05-23T00:19:21;5.15;;;4.45;;
11394;SDS011;5753;54.402;10.220;2023-05-23T00:21:47;9.30;;;4.78;;
11394;SDS011;5753;54.402;10.220;2023-05-23T00:24:13;4.97;;;3.67;;
11394;SDS011;5753;54.402;10.220;2023-05-23T00:26:42;4.25;;;3.53;;
11394;SDS011;5753;54.402;10.220;2023-05-23T00:29:09;7.97;;;4.47;;
11394;SDS011;5753;54.402;10.220;2023-05-23T00:31:42;10.57;;;4.45;;
11394;SDS011;5753;54.402;10.220;2023-05-23T00:34:10;7.03;;;4.05;;
11394;SDS011;5753;54.402;10.220;2023-05-23T00:36:38;6.65;;;3.97;;
11394;SDS011;5753;54.402;10.220;2023-05-23T00:39:05;3.90;;;3.33;;
11394;SDS011;5753;54.402;10.220;2023-05-23T00:41:32;3.28;;;2.92;;
11394;SDS011;5753;54.402;10.220;2023-05-23T00:44:00;6.00;;;3.90;;
11394;SDS011;5753;54.402;10.220;2023-05-23T00:46:26;15.77;;;3.85;;
11394;SDS011;5753;54.402;10.220;2023-05-23T00:48:54;11.35;;;4.28;;
11394;SDS011;5753;54.402;10.220;2023-05-23T00:51:21;6.38;;;4.22;;
11394;SDS011;5753;54.402;10.220;2023-05-23T00:53:48;6.50;;;4.18;;
11394;SDS011;5753;54.402;10.220;2023-05-23T00:56:15;10.85;;;4.13;;
11394;SDS011;5753;54.402;10.220;2023-05-23T00:58:42;13.98;;;3.72;;
11394;SDS011;5753;54.402;10.220;2023-05-23T01:01:09;8.25;;;6.05;;
11394;SDS011;5753;54.402;10.220;2023-05-23T01:03:35;9.48;;;5.03;;
11394;SDS011;5753;54.402;10.220;2023-05-23T01:06:01;13.77;;;4.97;;
11394;SDS011;5753;54.402;10.220;2023-05-23T01:08:27;4.82;;;2.97;;
11394;SDS011;5753;54.402;10.220;2023-05-23T01:10:54;5.43;;;4.90;;
11394;SDS011;5753;54.402;10.220;2023-05-23T01:15:54;8.40;;;4.72;;
11394;SDS011;5753;54.402;10.220;2023-05-23T01:20:55;5.95;;;3.20;;
11394;SDS011;5753;54.402;10.220;2023-05-23T01:23:44;8.52;;;4.38;;
11394;SDS011;5753;54.402;10.220;2023-05-23T01:28:49;3.80;;;2.60;;
11394;SDS011;5753;54.402;10.220;2023-05-23T01:31:20;5.82;;;3.65;;
11394;SDS011;5753;54.402;10.220;2023-05-23T01:33:48;3.40;;;3.10;;
11394;SDS011;5753;54.402;10.220;2023-05-23T01:36:17;6.15;;;3.47;;
11394;SDS011;5753;54.402;10.220;2023-05-23T01:38:44;8.90;;;4.25;;
11394;SDS011;5753;54.402;10.220;2023-05-23T01:41:10;7.75;;;5.70;;
11394;SDS011;5753;54.402;10.220;2023-05-23T01:43:36;4.70;;;3.38;;
11394;SDS011;5753;54.402;10.220;2023-05-23T01:46:03;4.78;;;4.15;;
11394;SDS011;5753;54.402;10.220;2023-05-23T01:48:31;4.75;;;4.25;;
11394;SDS011;5753;54.402;10.220;2023-05-23T01:50:58;4.13;;;3.05;;
11394;SDS011;5753;54.402;10.220;2023-05-23T01:53:25;4.60;;;3.35;;
11394;SDS011;5753;54.402;10.220;2023-05-23T01:55:52;7.90;;;3.92;;
11394;SDS011;5753;54.402;10.220;2023-05-23T01:58:19;7.82;;;4.57;;
11394;SDS011;5753;54.402;10.220;2023-05-23T02:00:45;5.60;;;4.47;;
11394;SDS011;5753;54.402;10.220;2023-05-23T02:03:12;6.50;;;3.40;;
11394;SDS011;5753;54.402;10.220;2023-05-23T02:05:38;13.13;;;4.82;;
11394;SDS011;5753;54.402;10.220;2023-05-23T02:08:04;4.32;;;3.92;;
11394;SDS011;5753;54.402;10.220;2023-05-23T02:10:30;10.73;;;4.75;;
11394;SDS011;5753;54.402;10.220;2023-05-23T02:12:56;10.25;;;4.18;;
11394;SDS011;5753;54.402;10.220;2023-05-23T02:15:22;31.13;;;4.68;;
11394;SDS011;5753;54.402;10.220;2023-05-23T02:17:48;5.63;;;3.40;;
11394;SDS011;5753;54.402;10.220;2023-05-23T02:20:15;4.78;;;3.30;;
11394;SDS011;5753;54.402;10.220;2023-05-23T02:22:42;9.48;;;3.97;;
11394;SDS011;5753;54.402;10.220;2023-05-23T02:25:08;5.10;;;4.65;;
11394;SDS011;5753;54.402;10.220;2023-05-23T02:27:35;5.15;;;3.13;;
11394;SDS011;5753;54.402;10.220;2023-05-23T02:30:01;4.53;;;3.42;;
11394;SDS011;5753;54.402;10.220;2023-05-23T02:32:28;6.43;;;3.75;;
11394;SDS011;5753;54.402;10.220;2023-05-23T02:34:54;8.10;;;4.55;;
11394;SDS011;5753;54.402;10.220;2023-05-23T02:37:20;4.78;;;4.15;;
11394;SDS011;5753;54.402;10.220;2023-05-23T02:39:46;8.50;;;4.25;;
11394;SDS011;5753;54.402;10.220;2023-05-23T02:42:12;6.70;;;4.00;;
11394;SDS011;5753;54.402;10.220;2023-05-23T02:44:38;7.20;;;3.10;;
11394;SDS011;5753;54.402;10.220;2023-05-23T02:47:04;6.13;;;4.90;;
11394;SDS011;5753;54.402;10.220;2023-05-23T02:49:31;5.50;;;3.70;;
11394;SDS011;5753;54.402;10.220;2023-05-23T02:51:57;7.18;;;6.32;;
11394;SDS011;5753;54.402;10.220;2023-05-23T02:54:23;7.72;;;5.43;;
11394;SDS011;5753;54.402;10.220;2023-05-23T02:56:50;3.92;;;3.40;;
11394;SDS011;5753;54.402;10.220;2023-05-23T02:59:17;17.35;;;5.03;;
11394;SDS011;5753;54.402;10.220;2023-05-23T03:01:43;5.38;;;3.70;;
11394;SDS011;5753;54.402;10.220;2023-05-23T03:04:09;5.80;;;4.78;;
11394;SDS011;5753;54.402;10.220;2023-05-23T03:06:37;8.07;;;4.25;;
11394;SDS011;5753;54.402;10.220;2023-05-23T03:09:04;5.38;;;3.30;;
11394;SDS011;5753;54.402;10.220;2023-05-23T03:11:30;10.57;;;4.93;;
11394;SDS011;5753;54.402;10.220;2023-05-23T03:13:56;5.85;;;4.63;;
11394;SDS011;5753;54.402;10.220;2023-05-23T03:16:22;7.45;;;4.28;;
11394;SDS011;5753;54.402;10.220;2023-05-23T03:18:48;5.40;;;4.88;;
11394;SDS011;5753;54.402;10.220;2023-05-23T03:21:14;6.88;;;4.60;;
11394;SDS011;5753;54.402;10.220;2023-05-23T03:23:40;12.65;;;5.75;;
11394;SDS011;5753;54.402;10.220;2023-05-23T03:26:07;9.45;;;5.10;;
11394;SDS011;5753;54.402;10.220;2023-05-23T03:28:33;6.85;;;4.65;;
11394;SDS011;5753;54.402;10.220;2023-05-23T03:30:59;4.93;;;4.13;;
11394;SDS011;5753;54.402;10.220;2023-05-23T03:33:25;11.07;;;4.35;;
11394;SDS011;5753;54.402;10.220;2023-05-23T03:35:51;6.05;;;4.90;;
11394;SDS011;5753;54.402;10.220;2023-05-23T03:38:17;9.85;;;5.30;;
11394;SDS011;5753;54.402;10.220;2023-05-23T03:40:44;4.85;;;4.35;;
11394;SDS011;5753;54.402;10.220;2023-05-23T03:43:11;10.57;;;5.78;;
11394;SDS011;5753;54.402;10.220;2023-05-23T03:45:37;8.07;;;5.32;;
11394;SDS011;5753;54.402;10.220;2023-05-23T03:48:03;7.07;;;5.28;;
11394;SDS011;5753;54.402;10.220;2023-05-23T03:50:29;7.53;;;3.67;;
11394;SDS011;5753;54.402;10.220;2023-05-23T03:52:55;4.43;;;3.80;;
11394;SDS011;5753;54.402;10.220;2023-05-23T03:55:21;32.10;;;5.30;;
11394;SDS011;5753;54.402;10.220;2023-05-23T03:57:48;8.73;;;4.00;;
11394;SDS011;5753;54.402;10.220;2023-05-23T04:00:18;5.03;;;4.07;;
11394;SDS011;5753;54.402;10.220;2023-05-23T04:02:45;6.63;;;4.07;;
11394;SDS011;5753;54.402;10.220;2023-05-23T04:05:11;5.82;;;4.28;;
11394;SDS011;5753;54.402;10.220;2023-05-23T04:07:37;5.57;;;3.55;;
11394;SDS011;5753;54.402;10.220;2023-05-23T04:10:05;3.60;;;3.28;;
11394;SDS011;5753;54.402;10.220;2023-05-23T04:12:32;4.70;;;3.40;;
11394;SDS011;5753;54.402;10.220;2023-05-23T04:14:58;4.88;;;3.00;;
11394;SDS011;5753;54.402;10.220;2023-05-23T04:17:24;5.00;;;3.83;;
11394;SDS011;5753;54.402;10.220;2023-05-23T04:19:53;6.30;;;3.42;;
11394;SDS011;5753;54.402;10.220;2023-05-23T04:22:19;5.55;;;3.03;;
11394;SDS011;5753;54.402;10.220;2023-05-23T04:24:45;4.43;;;3.60;;
11394;SDS011;5753;54.402;10.220;2023-05-23T04:27:11;6.68;;;3.35;;
11394;SDS011;5753;54.402;10.220;2023-05-23T04:29:38;5.00;;;3.28;;
11394;SDS011;5753;54.402;10.220;2023-05-23T04:32:04;4.95;;;3.40;;
11394;SDS011;5753;54.402;10.220;2023-05-23T04:34:32;4.32;;;3.97;;
11394;SDS011;5753;54.402;10.220;2023-05-23T04:37:01;3.03;;;2.28;;
11394;SDS011;5753;54.402;10.220;2023-05-23T04:39:27;6.47;;;3.92;;
11394;SDS011;5753;54.402;10.220;2023-05-23T04:41:54;6.93;;;4.85;;
11394;SDS011;5753;54.402;10.220;2023-05-23T04:44:20;5.35;;;3.90;;
11394;SDS011;5753;54.402;10.220;2023-05-23T04:46:47;11.95;;;4.00;;
11394;SDS011;5753;54.402;10.220;2023-05-23T04:49:14;8.30;;;4.00;;
11394;SDS011;5753;54.402;10.220;2023-05-23T04:51:40;4.35;;;3.85;;
11394;SDS011;5753;54.402;10.220;2023-05-23T04:54:07;9.25;;;4.00;;
11394;SDS011;5753;54.402;10.220;2023-05-23T04:56:33;7.40;;;4.07;;
11394;SDS011;5753;54.402;10.220;2023-05-23T04:58:59;3.88;;;3.20;;
11394;SDS011;5753;54.402;10.220;2023-05-23T05:01:25;7.60;;;4.63;;
11394;SDS011;5753;54.402;10.220;2023-05-23T05:03:52;7.65;;;4.97;;
11394;SDS011;5753;54.402;10.220;2023-05-23T05:06:19;5.88;;;4.03;;
11394;SDS011;5753;54.402;10.220;2023-05-23T05:08:45;5.10;;;4.60;;
11394;SDS011;5753;54.402;10.220;2023-05-23T05:11:11;6.13;;;5.28;;
11394;SDS011;5753;54.402;10.220;2023-05-23T05:13:37;5.20;;;4.45;;
11394;SDS011;5753;54.402;10.220;2023-05-23T05:16:04;18.40;;;5.15;;
11394;SDS011;5753;54.402;10.220;2023-05-23T05:18:30;4.75;;;4.15;;
11394;SDS011;5753;54.402;10.220;2023-05-23T05:20:56;5.50;;;4.65;;
11394;SDS011;5753;54.402;10.220;2023-05-23T05:23:24;4.30;;;3.92;;
11394;SDS011;5753;54.402;10.220;2023-05-23T05:25:52;6.68;;;5.22;;
11394;SDS011;5753;54.402;10.220;2023-05-23T05:28:20;3.47;;;3.17;;
11394;SDS011;5753;54.402;10.220;2023-05-23T05:30:46;11.00;;;3.78;;
11394;SDS011;5753;54.402;10.220;2023-05-23T05:33:13;5.32;;;4.18;;
11394;SDS011;5753;54.402;10.220;2023-05-23T05:35:39;4.05;;;3.50;;
11394;SDS011;5753;54.402;10.220;2023-05-23T05:38:05;10.18;;;4.93;;
11394;SDS011;5753;54.402;10.220;2023-05-23T05:40:32;3.83;;;3.28;;
11394;SDS011;5753;54.402;10.220;2023-05-23T05:42:58;4.50;;;3.55;;
11394;SDS011;5753;54.402;10.220;2023-05-23T05:45:24;6.10;;;4.38;;
11394;SDS011;5753;54.402;10.220;2023-05-23T05:47:51;6.18;;;3.90;;
11394;SDS011;5753;54.402;10.220;2023-05-23T05:50:17;4.20;;;3.03;;
11394;SDS011;5753;54.402;10.220;2023-05-23T05:52:44;5.57;;;3.90;;
11394;SDS011;5753;54.402;10.220;2023-05-23T05:55:10;6.47;;;5.20;;
11394;SDS011;5753;54.402;10.220;2023-05-23T05:57:37;8.60;;;4.32;;
11394;SDS011;5753;54.402;10.220;2023-05-23T06:00:05;9.23;;;3.97;;
11394;SDS011;5753;54.402;10.220;2023-05-23T06:02:37;5.40;;;3.25;;
11394;SDS011;5753;54.402;10.220;2023-05-23T06:05:03;6.22;;;3.80;;
11394;SDS011;5753;54.402;10.220;2023-05-23T06:07:32;8.45;;;4.47;;
11394;SDS011;5753;54.402;10.220;2023-05-23T06:09:58;8.68;;;5.07;;
11394;SDS011;5753;54.402;10.220;2023-05-23T06:12:24;6.45;;;5.50;;
11394;SDS011;5753;54.402;10.220;2023-05-23T06:14:51;11.50;;;4.88;;
11394;SDS011;5753;54.402;10.220;2023-05-23T06:17:17;5.05;;;4.57;;
11394;SDS011;5753;54.402;10.220;2023-05-23T06:19:43;5.30;;;4.13;;
11394;SDS011;5753;54.402;10.220;2023-05-23T06:22:09;10.73;;;4.18;;
11394;SDS011;5753;54.402;10.220;2023-05-23T06:24:35;9.98;;;6.18;;
11394;SDS011;5753;54.402;10.220;2023-05-23T06:27:01;8.13;;;5.40;;
11394;SDS011;5753;54.402;10.220;2023-05-23T06:29:27;9.55;;;5.07;;
11394;SDS011;5753;54.402;10.220;2023-05-23T06:31:55;11.23;;;6.07;;
11394;SDS011;5753;54.402;10.220;2023-05-23T06:34:21;13.52;;;5.43;;
11394;SDS011;5753;54.402;10.220;2023-05-23T06:36:47;6.85;;;5.75;;
11394;SDS011;5753;54.402;10.220;2023-05-23T06:39:13;16.95;;;5.53;;
11394;SDS011;5753;54.402;10.220;2023-05-23T06:41:40;7.95;;;5.07;;
11394;SDS011;5753;54.402;10.220;2023-05-23T06:44:06;10.98;;;7.80;;
11394;SDS011;5753;54.402;10.220;2023-05-23T06:46:32;9.02;;;5.82;;
11394;SDS011;5753;54.402;10.220;2023-05-23T06:48:58;8.68;;;5.72;;
11394;SDS011;5753;54.402;10.220;2023-05-23T06:51:24;9.93;;;6.55;;
11394;SDS011;5753;54.402;10.220;2023-05-23T06:53:50;8.07;;;6.53;;
11394;SDS011;5753;54.402;10.220;2023-05-23T06:56:17;9.48;;;7.32;;
11394;SDS011;5753;54.402;10.220;2023-05-23T06:58:43;14.65;;;7.45;;
11394;SDS011;5753;54.402;10.220;2023-05-23T07:01:09;7.38;;;5.78;;
11394;SDS011;5753;54.402;10.220;2023-05-23T07:03:35;10.50;;;7.75;;
11394;SDS011;5753;54.402;10.220;2023-05-23T07:06:06;8.25;;;6.82;;
11394;SDS011;5753;54.402;10.220;2023-05-23T07:08:32;8.32;;;5.55;;
11394;SDS011;5753;54.402;10.220;2023-05-23T07:10:58;6.65;;;5.05;;
11394;SDS011;5753;54.402;10.220;2023-05-23T07:13:24;7.45;;;6.75;;
11394;SDS011;5753;54.402;10.220;2023-05-23T07:15:50;11.00;;;6.15;;
11394;SDS011;5753;54.402;10.220;2023-05-23T07:18:16;10.05;;;6.38;;
11394;SDS011;5753;54.402;10.220;2023-05-23T07:20:43;5.82;;;4.78;;
11394;SDS011;5753;54.402;10.220;2023-05-23T07:23:09;7.88;;;5.82;;
11394;SDS011;5753;54.402;10.220;2023-05-23T07:25:35;9.55;;;7.10;;
11394;SDS011;5753;54.402;10.220;2023-05-23T07:28:01;6.40;;;5.22;;
11394;SDS011;5753;54.402;10.220;2023-05-23T07:30:27;14.93;;;8.52;;
11394;SDS011;5753;54.402;10.220;2023-05-23T07:32:53;8.05;;;5.50;;
11394;SDS011;5753;54.402;10.220;2023-05-23T07:35:19;9.07;;;5.00;;
11394;SDS011;5753;54.402;10.220;2023-05-23T07:37:50;8.05;;;6.63;;
11394;SDS011;5753;54.402;10.220;2023-05-23T07:40:17;7.40;;;6.68;;
11394;SDS011;5753;54.402;10.220;2023-05-23T07:42:43;10.80;;;7.82;;
11394;SDS011;5753;54.402;10.220;2023-05-23T07:45:09;7.75;;;6.95;;
11394;SDS011;5753;54.402;10.220;2023-05-23T07:47:36;10.85;;;7.60;;
11394;SDS011;5753;54.402;10.220;2023-05-23T07:50:02;9.38;;;8.27;;
11394;SDS011;5753;54.402;10.220;2023-05-23T07:52:29;11.48;;;9.15;;
11394;SDS011;5753;54.402;10.220;2023-05-23T07:54:56;11.35;;;10.07;;
11394;SDS011;5753;54.402;10.220;2023-05-23T07:57:23;11.18;;;9.00;;
11394;SDS011;5753;54.402;10.220;2023-05-23T07:59:51;17.90;;;7.43;;
11394;SDS011;5753;54.402;10.220;2023-05-23T08:02:18;15.70;;;7.72;;
11394;SDS011;5753;54.402;10.220;2023-05-23T08:04:47;9.73;;;7.80;;
11394;SDS011;5753;54.402;10.220;2023-05-23T08:07:14;8.38;;;7.57;;
11394;SDS011;5753;54.402;10.220;2023-05-23T08:09:40;16.10;;;9.02;;
11394;SDS011;5753;54.402;10.220;2023-05-23T08:12:06;10.10;;;8.38;;
11394;SDS011;5753;54.402;10.220;2023-05-23T08:14:33;12.35;;;10.48;;
11394;SDS011;5753;54.402;10.220;2023-05-23T08:17:00;8.75;;;7.60;;
11394;SDS011;5753;54.402;10.220;2023-05-23T08:19:27;14.85;;;9.43;;
11394;SDS011;5753;54.402;10.220;2023-05-23T08:21:53;11.07;;;8.45;;
11394;SDS011;5753;54.402;10.220;2023-05-23T08:24:19;12.63;;;10.02;;
11394;SDS011;5753;54.402;10.220;2023-05-23T08:26:46;16.00;;;10.65;;
11394;SDS011;5753;54.402;10.220;2023-05-23T08:29:13;13.02;;;9.77;;
11394;SDS011;5753;54.402;10.220;2023-05-23T08:31:40;15.05;;;9.57;;
11394;SDS011;5753;54.402;10.220;2023-05-23T08:34:06;12.82;;;11.27;;
11394;SDS011;5753;54.402;10.220;2023-05-23T08:36:32;11.80;;;10.30;;
11394;SDS011;5753;54.402;10.220;2023-05-23T08:39:00;12.40;;;8.40;;
11394;SDS011;5753;54.402;10.220;2023-05-23T08:41:28;7.45;;;5.32;;
11394;SDS011;5753;54.402;10.220;2023-05-23T08:43:55;6.45;;;4.93;;
11394;SDS011;5753;54.402;10.220;2023-05-23T08:46:22;14.27;;;5.43;;
11394;SDS011;5753;54.402;10.220;2023-05-23T08:48:52;5.95;;;5.40;;
11394;SDS011;5753;54.402;10.220;2023-05-23T08:51:20;8.77;;;6.43;;
11394;SDS011;5753;54.402;10.220;2023-05-23T08:53:48;7.40;;;6.20;;
11394;SDS011;5753;54.402;10.220;2023-05-23T08:56:17;9.75;;;6.60;;
11394;SDS011;5753;54.402;10.220;2023-05-23T08:58:44;14.35;;;5.57;;
11394;SDS011;5753;54.402;10.220;2023-05-23T09:01:12;8.75;;;6.60;;
11394;SDS011;5753;54.402;10.220;2023-05-23T09:03:38;6.85;;;5.00;;
11394;SDS011;5753;54.402;10.220;2023-05-23T09:06:06;9.40;;;6.35;;
11394;SDS011;5753;54.402;10.220;2023-05-23T09:08:34;8.23;;;6.53;;
11394;SDS011;5753;54.402;10.220;2023-05-23T09:11:01;4.68;;;3.85;;
11394;SDS011;5753;54.402;10.220;2023-05-23T09:13:29;6.57;;;3.50;;
11394;SDS011;5753;54.402;10.220;2023-05-23T09:16:05;11.13;;;2.88;;
11394;SDS011;5753;54.402;10.220;2023-05-23T09:18:37;5.47;;;3.83;;
11394;SDS011;5753;54.402;10.220;2023-05-23T09:21:07;3.17;;;2.83;;
11394;SDS011;5753;54.402;10.220;2023-05-23T09:23:34;4.65;;;2.45;;
11394;SDS011;5753;54.402;10.220;2023-05-23T09:26:02;7.55;;;2.60;;
11394;SDS011;5753;54.402;10.220;2023-05-23T09:28:29;6.43;;;3.25;;
11394;SDS011;5753;54.402;10.220;2023-05-23T09:31:00;2.78;;;2.40;;
11394;SDS011;5753;54.402;10.220;2023-05-23T09:33:42;4.22;;;3.35;;
11394;SDS011;5753;54.402;10.220;2023-05-23T09:36:12;5.03;;;2.65;;
11394;SDS011;5753;54.402;10.220;2023-05-23T09:38:39;3.10;;;2.22;;
11394;SDS011;5753;54.402;10.220;2023-05-23T09:41:06;3.92;;;2.03;;
11394;SDS011;5753;54.402;10.220;2023-05-23T09:43:36;5.20;;;1.88;;
11394;SDS011;5753;54.402;10.220;2023-05-23T09:46:26;2.72;;;2.35;;
11394;SDS011;5753;54.402;10.220;2023-05-23T09:48:54;6.60;;;3.88;;
11394;SDS011;5753;54.402;10.220;2023-05-23T09:51:21;2.25;;;1.50;;
11394;SDS011;5753;54.402;10.220;2023-05-23T09:53:48;2.30;;;2.08;;
11394;SDS011;5753;54.402;10.220;2023-05-23T09:56:15;4.72;;;1.98;;
11394;SDS011;5753;54.402;10.220;2023-05-23T09:58:43;6.97;;;2.50;;
11394;SDS011;5753;54.402;10.220;2023-05-23T10:01:14;6.60;;;2.20;;
11394;SDS011;5753;54.402;10.220;2023-05-23T10:03:45;5.00;;;3.40;;
11394;SDS011;5753;54.402;10.220;2023-05-23T10:06:18;3.88;;;3.40;;
11394;SDS011;5753;54.402;10.220;2023-05-23T10:08:54;6.05;;;2.85;;
11394;SDS011;5753;54.402;10.220;2023-05-23T10:13:58;6.28;;;2.60;;
11394;SDS011;5753;54.402;10.220;2023-05-23T10:17:01;4.82;;;4.03;;
11394;SDS011;5753;54.402;10.220;2023-05-23T10:19:41;10.45;;;3.90;;
11394;SDS011;5753;54.402;10.220;2023-05-23T10:22:11;4.20;;;3.67;;
11394;SDS011;5753;54.402;10.220;2023-05-23T10:24:38;10.32;;;4.45;;
11394;SDS011;5753;54.402;10.220;2023-05-23T10:27:06;10.23;;;4.03;;
11394;SDS011;5753;54.402;10.220;2023-05-23T10:29:32;2.78;;;2.53;;
11394;SDS011;5753;54.402;10.220;2023-05-23T10:32:00;7.38;;;2.92;;
11394;SDS011;5753;54.402;10.220;2023-05-23T10:34:36;7.55;;;3.95;;
11394;SDS011;5753;54.402;10.220;2023-05-23T10:37:05;14.20;;;4.53;;
11394;SDS011;5753;54.402;10.220;2023-05-23T10:42:02;7.72;;;3.63;;
11394;SDS011;5753;54.402;10.220;2023-05-23T10:44:35;6.43;;;3.70;;
11394;SDS011;5753;54.402;10.220;2023-05-23T10:47:02;5.22;;;2.60;;
11394;SDS011;5753;54.402;10.220;2023-05-23T10:52:06;6.03;;;3.70;;
11394;SDS011;5753;54.402;10.220;2023-05-23T10:54:42;7.50;;;2.50;;
11394;SDS011;5753;54.402;10.220;2023-05-23T10:57:15;7.90;;;4.40;;
11394;SDS011;5753;54.402;10.220;2023-05-23T10:59:43;5.63;;;2.80;;
11394;SDS011;5753;54.402;10.220;2023-05-23T11:02:15;11.75;;;4.60;;
11394;SDS011;5753;54.402;10.220;2023-05-23T11:08:07;5.18;;;2.15;;
11394;SDS011;5753;54.402;10.220;2023-05-23T11:10:51;11.43;;;3.45;;
11394;SDS011;5753;54.402;10.220;2023-05-23T11:16:23;8.20;;;3.30;;
11394;SDS011;5753;54.402;10.220;2023-05-23T11:21:44;7.63;;;3.25;;
11394;SDS011;5753;54.402;10.220;2023-05-23T11:24:13;6.85;;;3.13;;
11394;SDS011;5753;54.402;10.220;2023-05-23T11:26:39;9.68;;;3.55;;
11394;SDS011;5753;54.402;10.220;2023-05-23T11:29:15;9.50;;;4.07;;
11394;SDS011;5753;54.402;10.220;2023-05-23T11:31:41;9.25;;;4.03;;
11394;SDS011;5753;54.402;10.220;2023-05-23T11:34:07;7.45;;;4.13;;
11394;SDS011;5753;54.402;10.220;2023-05-23T11:36:35;6.45;;;3.25;;
11394;SDS011;5753;54.402;10.220;2023-05-23T11:39:02;5.93;;;3.22;;
11394;SDS011;5753;54.402;10.220;2023-05-23T11:41:33;9.68;;;4.18;;
11394;SDS011;5753;54.402;10.220;2023-05-23T11:43:59;14.00;;;3.70;;
11394;SDS011;5753;54.402;10.220;2023-05-23T11:46:26;8.18;;;4.20;;
11394;SDS011;5753;54.402;10.220;2023-05-23T11:48:52;5.25;;;2.80;;
11394;SDS011;5753;54.402;10.220;2023-05-23T11:51:18;9.35;;;4.97;;
11394;SDS011;5753;54.402;10.220;2023-05-23T11:53:45;4.60;;;2.95;;
11394;SDS011;5753;54.402;10.220;2023-05-23T11:56:11;5.13;;;3.08;;
11394;SDS011;5753;54.402;10.220;2023-05-23T11:58:40;8.35;;;4.07;;
11394;SDS011;5753;54.402;10.220;2023-05-23T12:01:07;10.02;;;3.35;;
11394;SDS011;5753;54.402;10.220;2023-05-23T12:03:34;12.52;;;3.88;;
11394;SDS011;5753;54.402;10.220;2023-05-23T12:06:13;11.23;;;5.18;;
11394;SDS011;5753;54.402;10.220;2023-05-23T12:08:49;8.35;;;3.90;;
11394;SDS011;5753;54.402;10.220;2023-05-23T12:11:16;4.88;;;3.58;;
11394;SDS011;5753;54.402;10.220;2023-05-23T12:13:43;7.22;;;3.00;;
11394;SDS011;5753;54.402;10.220;2023-05-23T12:16:09;9.85;;;5.13;;
11394;SDS011;5753;54.402;10.220;2023-05-23T12:18:41;8.43;;;3.83;;
11394;SDS011;5753;54.402;10.220;2023-05-23T12:21:07;8.07;;;3.13;;
11394;SDS011;5753;54.402;10.220;2023-05-23T12:23:34;9.73;;;3.28;;
11394;SDS011;5753;54.402;10.220;2023-05-23T12:26:02;10.60;;;3.65;;
11394;SDS011;5753;54.402;10.220;2023-05-23T12:28:40;5.35;;;3.25;;
11394;SDS011;5753;54.402;10.220;2023-05-23T12:33:39;6.57;;;3.58;;
11394;SDS011;5753;54.402;10.220;2023-05-23T12:36:07;13.05;;;3.30;;
11394;SDS011;5753;54.402;10.220;2023-05-23T12:38:34;13.80;;;4.32;;
11394;SDS011;5753;54.402;10.220;2023-05-23T12:41:16;19.45;;;5.35;;
11394;SDS011;5753;54.402;10.220;2023-05-23T12:43:53;8.98;;;3.42;;
11394;SDS011;5753;54.402;10.220;2023-05-23T12:46:21;13.13;;;3.10;;
11394;SDS011;5753;54.402;10.220;2023-05-23T12:48:48;12.30;;;4.88;;
11394;SDS011;5753;54.402;10.220;2023-05-23T12:51:15;7.20;;;5.10;;
11394;SDS011;5753;54.402;10.220;2023-05-23T12:53:41;9.57;;;3.55;;
11394;SDS011;5753;54.402;10.220;2023-05-23T12:56:07;12.73;;;5.40;;
11394;SDS011;5753;54.402;10.220;2023-05-23T12:58:34;4.63;;;3.03;;
11394;SDS011;5753;54.402;10.220;2023-05-23T13:01:00;11.05;;;4.60;;
11394;SDS011;5753;54.402;10.220;2023-05-23T13:03:27;10.45;;;3.55;;
11394;SDS011;5753;54.402;10.220;2023-05-23T13:05:57;12.18;;;3.15;;
11394;SDS011;5753;54.402;10.220;2023-05-23T13:08:24;9.13;;;4.43;;
11394;SDS011;5753;54.402;10.220;2023-05-23T13:10:52;7.55;;;4.53;;
11394;SDS011;5753;54.402;10.220;2023-05-23T13:13:18;5.05;;;2.90;;
11394;SDS011;5753;54.402;10.220;2023-05-23T13:15:44;7.93;;;5.13;;
11394;SDS011;5753;54.402;10.220;2023-05-23T13:18:11;19.58;;;5.93;;
11394;SDS011;5753;54.402;10.220;2023-05-23T13:20:37;15.73;;;5.95;;
11394;SDS011;5753;54.402;10.220;2023-05-23T13:23:03;12.65;;;2.55;;
11394;SDS011;5753;54.402;10.220;2023-05-23T13:25:31;10.30;;;5.38;;
11394;SDS011;5753;54.402;10.220;2023-05-23T13:27:58;20.65;;;4.90;;
11394;SDS011;5753;54.402;10.220;2023-05-23T13:30:25;11.13;;;5.03;;
11394;SDS011;5753;54.402;10.220;2023-05-23T13:32:51;10.75;;;5.20;;
11394;SDS011;5753;54.402;10.220;2023-05-23T13:35:18;8.48;;;3.17;;
11394;SDS011;5753;54.402;10.220;2023-05-23T13:37:44;6.32;;;3.25;;
11394;SDS011;5753;54.402;10.220;2023-05-23T13:40:11;14.90;;;4.10;;
11394;SDS011;5753;54.402;10.220;2023-05-23T13:42:46;7.18;;;3.08;;
11394;SDS011;5753;54.402;10.220;2023-05-23T13:45:13;7.00;;;3.67;;
11394;SDS011;5753;54.402;10.220;2023-05-23T13:47:39;7.70;;;4.43;;
11394;SDS011;5753;54.402;10.220;2023-05-23T13:50:06;7.22;;;2.92;;
11394;SDS011;5753;54.402;10.220;2023-05-23T13:52:32;10.93;;;3.95;;
11394;SDS011;5753;54.402;10.220;2023-05-23T13:54:59;17.40;;;4.53;;
11394;SDS011;5753;54.402;10.220;2023-05-23T13:57:26;9.48;;;3.15;;
11394;SDS011;5753;54.402;10.220;2023-05-23T13:59:52;6.78;;;2.42;;
11394;SDS011;5753;54.402;10.220;2023-05-23T14:02:18;12.57;;;4.57;;
11394;SDS011;5753;54.402;10.220;2023-05-23T14:04:46;12.27;;;3.70;;
11394;SDS011;5753;54.402;10.220;2023-05-23T14:07:13;10.15;;;2.50;;
11394;SDS011;5753;54.402;10.220;2023-05-23T14:09:41;5.35;;;3.70;;
11394;SDS011;5753;54.402;10.220;2023-05-23T14:12:07;12.75;;;4.18;;
11394;SDS011;5753;54.402;10.220;2023-05-23T14:14:33;10.23;;;4.85;;
11394;SDS011;5753;54.402;10.220;2023-05-23T14:16:59;9.02;;;4.75;;
11394;SDS011;5753;54.402;10.220;2023-05-23T14:19:25;12.73;;;2.88;;
11394;SDS011;5753;54.402;10.220;2023-05-23T14:21:52;13.23;;;3.97;;
11394;SDS011;5753;54.402;10.220;2023-05-23T14:24:18;9.32;;;4.38;;
11394;SDS011;5753;54.402;10.220;2023-05-23T14:26:45;8.80;;;5.18;;
11394;SDS011;5753;54.402;10.220;2023-05-23T14:29:11;9.50;;;3.78;;
11394;SDS011;5753;54.402;10.220;2023-05-23T14:31:38;18.13;;;4.78;;
11394;SDS011;5753;54.402;10.220;2023-05-23T14:34:04;19.33;;;3.83;;
11394;SDS011;5753;54.402;10.220;2023-05-23T14:36:30;8.40;;;3.17;;
11394;SDS011;5753;54.402;10.220;2023-05-23T14:38:57;15.07;;;4.75;;
11394;SDS011;5753;54.402;10.220;2023-05-23T14:41:23;11.40;;;3.85;;
11394;SDS011;5753;54.402;10.220;2023-05-23T14:43:49;6.55;;;3.50;;
11394;SDS011;5753;54.402;10.220;2023-05-23T14:46:16;12.35;;;2.47;;
11394;SDS011;5753;54.402;10.220;2023-05-23T14:48:42;15.27;;;4.70;;
11394;SDS011;5753;54.402;10.220;2023-05-23T14:51:08;7.05;;;4.80;;
11394;SDS011;5753;54.402;10.220;2023-05-23T14:53:34;3.53;;;2.63;;
11394;SDS011;5753;54.402;10.220;2023-05-23T14:56:01;15.05;;;4.30;;
11394;SDS011;5753;54.402;10.220;2023-05-23T14:58:27;9.55;;;5.63;;
11394;SDS011;5753;54.402;10.220;2023-05-23T15:00:54;16.05;;;3.35;;
11394;SDS011;5753;54.402;10.220;2023-05-23T15:03:21;23.25;;;5.47;;
11394;SDS011;5753;54.402;10.220;2023-05-23T15:05:47;14.65;;;4.35;;
11394;SDS011;5753;54.402;10.220;2023-05-23T15:08:14;7.50;;;3.90;;
11394;SDS011;5753;54.402;10.220;2023-05-23T15:10:42;7.75;;;3.13;;
11394;SDS011;5753;54.402;10.220;2023-05-23T15:13:09;11.45;;;4.10;;